<?xml version="1.0" encoding="UTF-8" standalone="no" ?>
<gpx xmlns="http://www.topografix.com/GPX/1/1" xmlns:xsi="http://www.w3.org/2001/XMLSchema-instance" xsi:schemaLocation="http://www.topografix.com/GPX/1/1 http://www.topografix.com/GPX/1/1/gpx.xsd" version="1.1" creator="VisuGPX - https://www.visugpx.com">
  <metadata>
    <name>Balade Cublize 10km</name>
  </metadata>
  <trk>
    <name><![CDATA[Balade Cublize 10km]]></name>
    <extensions>
      <line xmlns="http://www.topografix.com/GPX/gpx_style/0/2">
        <color>0000FF</color>
        <width>4</width>
      </line>
    </extensions>
    <trkseg>
      <trkpt lat="46.02431" lon="4.36007">
        <ele>465</ele>
        <time>2021-10-23T08:55:15Z</time>
      </trkpt>
      <trkpt lat="46.02389" lon="4.35966">
        <ele>553.9</ele>
      </trkpt>
      <trkpt lat="46.02339" lon="4.35973">
        <ele>549.5</ele>
      </trkpt>
      <trkpt lat="46.02314" lon="4.35908">
        <ele>536.6</ele>
      </trkpt>
      <trkpt lat="46.02211" lon="4.35867">
        <ele>536.8</ele>
      </trkpt>
      <trkpt lat="46.02156" lon="4.3587">
        <ele>540.3</ele>
      </trkpt>
      <trkpt lat="46.02106" lon="4.35902">
        <ele>540.3</ele>
      </trkpt>
      <trkpt lat="46.02065" lon="4.35997">
        <ele>538.3</ele>
      </trkpt>
      <trkpt lat="46.0206" lon="4.3608">
        <ele>542.8</ele>
      </trkpt>
      <trkpt lat="46.01969" lon="4.36137">
        <ele>544.1</ele>
      </trkpt>
      <trkpt lat="46.01927" lon="4.36239">
        <ele>558.8</ele>
      </trkpt>
      <trkpt lat="46.01875" lon="4.36285">
        <ele>556</ele>
      </trkpt>
      <trkpt lat="46.01959" lon="4.36553">
        <ele>556.9</ele>
      </trkpt>
      <trkpt lat="46.01954" lon="4.36649">
        <ele>554.7</ele>
      </trkpt>
      <trkpt lat="46.01878" lon="4.36805">
        <ele>562.7</ele>
      </trkpt>
      <trkpt lat="46.01869" lon="4.36851">
        <ele>564.7</ele>
      </trkpt>
      <trkpt lat="46.01859" lon="4.36908">
        <ele>561</ele>
      </trkpt>
      <trkpt lat="46.01864" lon="4.37011">
        <ele>549.2</ele>
      </trkpt>
      <trkpt lat="46.01812" lon="4.37153">
        <ele>533.7</ele>
      </trkpt>
      <trkpt lat="46.01778" lon="4.37182">
        <ele>523.3</ele>
      </trkpt>
      <trkpt lat="46.01813" lon="4.37521">
        <ele>483</ele>
      </trkpt>
      <trkpt lat="46.01847" lon="4.37655">
        <ele>467.6</ele>
      </trkpt>
      <trkpt lat="46.01826" lon="4.37768">
        <ele>461.5</ele>
      </trkpt>
      <trkpt lat="46.01805" lon="4.37801">
        <ele>461.1</ele>
      </trkpt>
      <trkpt lat="46.01777" lon="4.37852">
        <ele>456.6</ele>
      </trkpt>
      <trkpt lat="46.01603" lon="4.37906">
        <ele>446.6</ele>
      </trkpt>
      <trkpt lat="46.01563" lon="4.37971">
        <ele>446</ele>
      </trkpt>
      <trkpt lat="46.0151" lon="4.37995">
        <ele>446.3</ele>
      </trkpt>
      <trkpt lat="46.01444" lon="4.38061">
        <ele>449.8</ele>
      </trkpt>
      <trkpt lat="46.01405" lon="4.38133">
        <ele>456</ele>
        <time>2021-10-23T08:56:08Z</time>
      </trkpt>
      <trkpt lat="46.01293" lon="4.38175">
        <ele>459</ele>
        <time>2021-10-23T08:57:05Z</time>
      </trkpt>
      <trkpt lat="46.01173" lon="4.38171">
        <ele>451</ele>
        <time>2021-10-23T08:58:05Z</time>
      </trkpt>
      <trkpt lat="46.01081" lon="4.38116">
        <ele>445</ele>
        <time>2021-10-23T08:58:52Z</time>
      </trkpt>
      <trkpt lat="46.01052" lon="4.3809">
        <ele>441</ele>
        <time>2021-10-23T09:00:38Z</time>
      </trkpt>
      <trkpt lat="46.01003" lon="4.38043">
        <ele>442</ele>
        <time>2021-10-23T09:01:52Z</time>
      </trkpt>
      <trkpt lat="46.00987" lon="4.38026">
        <ele>457</ele>
        <time>2021-10-23T09:03:37Z</time>
      </trkpt>
      <trkpt lat="46.00921" lon="4.37958">
        <ele>463</ele>
        <time>2021-10-23T09:04:42Z</time>
      </trkpt>
      <trkpt lat="46.00751" lon="4.37563">
        <ele>458</ele>
        <time>2021-10-23T09:09:00Z</time>
      </trkpt>
      <trkpt lat="46.00653" lon="4.37323">
        <ele>453</ele>
        <time>2021-10-23T09:11:35Z</time>
      </trkpt>
      <trkpt lat="46.00584" lon="4.37151">
        <ele>450</ele>
        <time>2021-10-23T09:13:25Z</time>
      </trkpt>
      <trkpt lat="46.00563" lon="4.36997">
        <ele>451</ele>
        <time>2021-10-23T09:14:53Z</time>
      </trkpt>
      <trkpt lat="46.00546" lon="4.36846">
        <ele>447</ele>
        <time>2021-10-23T09:16:18Z</time>
      </trkpt>
      <trkpt lat="46.0045" lon="4.36855">
        <ele>447</ele>
        <time>2021-10-23T09:17:35Z</time>
      </trkpt>
      <trkpt lat="46.00399" lon="4.37039">
        <ele>448</ele>
        <time>2021-10-23T09:19:25Z</time>
      </trkpt>
      <trkpt lat="46.00355" lon="4.36928">
        <ele>449</ele>
        <time>2021-10-23T09:20:36Z</time>
      </trkpt>
      <trkpt lat="46.00437" lon="4.36712">
        <ele>443.3</ele>
      </trkpt>
      <trkpt lat="46.00496" lon="4.36658">
        <ele>442.8</ele>
      </trkpt>
      <trkpt lat="46.0056" lon="4.36627">
        <ele>441.3</ele>
      </trkpt>
      <trkpt lat="46.00548" lon="4.36596">
        <ele>441.7</ele>
      </trkpt>
      <trkpt lat="46.00494" lon="4.36586">
        <ele>443.5</ele>
      </trkpt>
      <trkpt lat="46.00356" lon="4.36484">
        <ele>445.4</ele>
      </trkpt>
      <trkpt lat="46.00338" lon="4.36464">
        <ele>444.9</ele>
      </trkpt>
      <trkpt lat="46.00331" lon="4.36406">
        <ele>442.7</ele>
      </trkpt>
      <trkpt lat="46.00391" lon="4.36111">
        <ele>442</ele>
      </trkpt>
      <trkpt lat="46.00724" lon="4.36267">
        <ele>449.4</ele>
      </trkpt>
      <trkpt lat="46.00765" lon="4.3634">
        <ele>449.2</ele>
      </trkpt>
      <trkpt lat="46.00795" lon="4.36543">
        <ele>447.9</ele>
      </trkpt>
      <trkpt lat="46.00879" lon="4.36904">
        <ele>455.1</ele>
      </trkpt>
      <trkpt lat="46.00894" lon="4.37046">
        <ele>454.5</ele>
      </trkpt>
      <trkpt lat="46.00922" lon="4.3717">
        <ele>458.5</ele>
      </trkpt>
      <trkpt lat="46.00973" lon="4.37255">
        <ele>457.8</ele>
      </trkpt>
      <trkpt lat="46.01055" lon="4.37341">
        <ele>457.9</ele>
      </trkpt>
      <trkpt lat="46.01098" lon="4.37441">
        <ele>461.7</ele>
      </trkpt>
      <trkpt lat="46.01105" lon="4.3749">
        <ele>459.2</ele>
      </trkpt>
      <trkpt lat="46.01086" lon="4.3753">
        <ele>455.9</ele>
      </trkpt>
      <trkpt lat="46.01143" lon="4.37623">
        <ele>449.8</ele>
      </trkpt>
      <trkpt lat="46.01184" lon="4.37667">
        <ele>449.9</ele>
      </trkpt>
      <trkpt lat="46.01338" lon="4.37888">
        <ele>451.4</ele>
      </trkpt>
      <trkpt lat="46.01282" lon="4.37941">
        <ele>443.4</ele>
      </trkpt>
      <trkpt lat="46.01228" lon="4.37959">
        <ele>442</ele>
      </trkpt>
      <trkpt lat="46.01179" lon="4.37955">
        <ele>442</ele>
      </trkpt>
      <trkpt lat="46.01167" lon="4.3798">
        <ele>442.3</ele>
      </trkpt>
      <trkpt lat="46.01223" lon="4.37999">
        <ele>442</ele>
      </trkpt>
      <trkpt lat="46.01306" lon="4.37963">
        <ele>443.7</ele>
      </trkpt>
      <trkpt lat="46.01374" lon="4.37951">
        <ele>443.4</ele>
      </trkpt>
      <trkpt lat="46.01506" lon="4.37994">
        <ele>446.5</ele>
      </trkpt>
      <trkpt lat="46.01609" lon="4.37904">
        <ele>446.5</ele>
      </trkpt>
      <trkpt lat="46.01778" lon="4.37853">
        <ele>456.6</ele>
      </trkpt>
      <trkpt lat="46.01829" lon="4.37773">
        <ele>461.3</ele>
      </trkpt>
      <trkpt lat="46.01849" lon="4.37644">
        <ele>468.3</ele>
      </trkpt>
      <trkpt lat="46.0181" lon="4.37525">
        <ele>482.8</ele>
      </trkpt>
      <trkpt lat="46.01777" lon="4.37192">
        <ele>522.2</ele>
      </trkpt>
      <trkpt lat="46.01864" lon="4.36995">
        <ele>550.2</ele>
      </trkpt>
      <trkpt lat="46.0188" lon="4.36804">
        <ele>562.9</ele>
      </trkpt>
      <trkpt lat="46.01957" lon="4.36648">
        <ele>555.6</ele>
      </trkpt>
      <trkpt lat="46.01953" lon="4.36541">
        <ele>555.4</ele>
      </trkpt>
      <trkpt lat="46.01873" lon="4.36287">
        <ele>555.5</ele>
      </trkpt>
      <trkpt lat="46.01971" lon="4.36142">
        <ele>545.4</ele>
      </trkpt>
      <trkpt lat="46.02055" lon="4.36083">
        <ele>541.8</ele>
      </trkpt>
      <trkpt lat="46.02108" lon="4.35902">
        <ele>540.6</ele>
      </trkpt>
      <trkpt lat="46.02187" lon="4.35849">
        <ele>535.4</ele>
      </trkpt>
      <trkpt lat="46.02308" lon="4.35907">
        <ele>536.1</ele>
      </trkpt>
      <trkpt lat="46.02341" lon="4.35979">
        <ele>551</ele>
      </trkpt>
      <trkpt lat="46.02434" lon="4.36003">
        <ele>442</ele>
        <time>2021-10-23T09:23:42Z</time>
      </trkpt>
    </trkseg>
  </trk>
</gpx>